createdAt,value
2023-02-12T00:00:35.345Z,929.12
2023-02-12T00:01:35.219Z,929.12
2023-02-12T00:02:35.299Z,929.14
2023-02-12T00:03:35.293Z,929.17
2023-02-12T00:04:35.395Z,929.18
2023-02-12T00:05:35.280Z,929.19
2023-02-12T00:06:35.412Z,929.22
2023-02-12T00:07:35.303Z,929.23
2023-02-12T00:08:35.434Z,929.19
2023-02-12T00:09:35.446Z,929.20
2023-02-12T00:10:35.459Z,929.18
2023-02-12T00:11:35.345Z,929.18
2023-02-12T00:12:35.482Z,929.20
2023-02-12T00:13:35.497Z,929.23
2023-02-12T00:14:35.504Z,929.20
2023-02-12T00:15:35.418Z,929.23
2023-02-12T00:16:35.403Z,929.24
2023-02-12T00:17:35.420Z,929.23
2023-02-12T00:18:35.551Z,929.26
2023-02-12T00:19:35.429Z,929.21
2023-02-12T00:20:35.573Z,929.23
2023-02-12T00:21:35.465Z,929.23
2023-02-12T00:22:35.599Z,929.25
2023-02-12T00:23:35.500Z,929.23
2023-02-12T00:24:35.619Z,929.26
2023-02-12T00:25:35.502Z,929.27
2023-02-12T00:26:35.644Z,929.27
2023-02-12T00:27:35.529Z,929.31
2023-02-12T00:28:35.713Z,929.31
2023-02-12T00:29:35.678Z,929.35
2023-02-12T00:30:35.741Z,929.35
2023-02-12T00:31:35.683Z,929.38
2023-02-12T00:32:35.713Z,929.39
2023-02-12T00:33:35.592Z,929.43
2023-02-12T00:34:35.739Z,929.37
2023-02-12T00:35:35.637Z,929.40
2023-02-12T00:36:35.758Z,929.42
2023-02-12T00:37:35.769Z,929.41
2023-02-12T00:38:35.781Z,929.39
2023-02-12T00:39:35.666Z,929.38
2023-02-12T00:40:35.704Z,929.42
2023-02-12T00:41:35.712Z,929.41
2023-02-12T00:42:35.834Z,929.42
2023-02-12T00:43:35.709Z,929.44
2023-02-12T00:44:35.853Z,929.44
2023-02-12T00:45:35.729Z,929.47
2023-02-12T00:46:35.799Z,929.42
2023-02-12T00:47:35.767Z,929.47
2023-02-12T00:48:35.894Z,929.43
2023-02-12T00:49:35.907Z,929.49
2023-02-12T00:50:35.919Z,929.51
2023-02-12T00:51:35.933Z,929.51
2023-02-12T00:52:35.819Z,929.50
2023-02-12T00:53:35.833Z,929.54
2023-02-12T00:54:35.971Z,929.52
2023-02-12T00:55:35.871Z,929.55
2023-02-12T00:56:35.988Z,929.57
2023-02-12T00:57:35.895Z,929.55
2023-02-12T00:58:35.889Z,929.59
2023-02-12T00:59:35.915Z,929.58
2023-02-12T01:00:36.043Z,929.60
2023-02-12T01:01:35.960Z,929.60
2023-02-12T01:02:35.938Z,929.63
2023-02-12T01:03:35.939Z,929.57
2023-02-12T01:04:36.012Z,929.59
2023-02-12T01:05:35.981Z,929.53
2023-02-12T01:06:36.109Z,929.57
2023-02-12T01:07:35.997Z,929.57
2023-02-12T01:08:36.131Z,929.56
2023-02-12T01:09:36.015Z,929.54
2023-02-12T01:10:36.159Z,929.53
2023-02-12T01:11:36.042Z,929.52
2023-02-12T01:12:36.070Z,929.53
2023-02-12T01:13:36.072Z,929.55
2023-02-12T01:14:36.078Z,929.57
2023-02-12T01:15:36.117Z,929.57
2023-02-12T01:16:36.292Z,929.57
2023-02-12T01:17:36.109Z,929.61
2023-02-12T01:18:36.261Z,929.57
2023-02-12T01:19:36.145Z,929.63
2023-02-12T01:20:36.273Z,929.58
2023-02-12T01:21:36.149Z,929.60
2023-02-12T01:22:36.295Z,929.64
2023-02-12T01:23:36.183Z,929.56
2023-02-12T01:24:36.189Z,929.63
2023-02-12T01:25:36.198Z,929.65
2023-02-12T01:26:36.344Z,929.63
2023-02-12T01:27:36.222Z,929.60
2023-02-12T01:28:36.363Z,929.65
2023-02-12T01:29:36.256Z,929.68
2023-02-12T01:30:36.269Z,929.65
2023-02-12T01:31:36.394Z,929.64
2023-02-12T01:32:36.414Z,929.65
2023-02-12T01:33:36.298Z,929.68
2023-02-12T01:34:36.322Z,929.66
2023-02-12T01:35:36.314Z,929.67
2023-02-12T01:36:36.472Z,929.67
2023-02-12T01:37:36.351Z,929.68
2023-02-12T01:38:36.348Z,929.67
2023-02-12T01:39:36.384Z,929.65
2023-02-12T01:40:36.384Z,929.69
2023-02-12T01:41:36.528Z,929.72
2023-02-12T01:42:36.432Z,929.69
2023-02-12T01:43:36.542Z,929.72
2023-02-12T01:44:36.442Z,929.71
2023-02-12T01:45:36.565Z,929.69
2023-02-12T01:46:36.479Z,929.69
2023-02-12T01:47:36.458Z,929.69
2023-02-12T01:48:36.599Z,929.70
2023-02-12T01:49:36.617Z,929.71
2023-02-12T01:50:36.489Z,929.74
2023-02-12T01:51:36.634Z,929.72
2023-02-12T01:52:36.530Z,929.70
2023-02-12T01:53:36.654Z,929.69
2023-02-12T01:54:36.559Z,929.72
2023-02-12T01:55:36.674Z,929.69
2023-02-12T01:56:36.689Z,929.74
2023-02-12T01:57:36.579Z,929.73
2023-02-12T01:58:36.579Z,929.71
2023-02-12T01:59:36.720Z,929.70
2023-02-12T02:00:36.621Z,929.71
2023-02-12T02:01:36.764Z,929.68
2023-02-12T02:02:36.627Z,929.70
2023-02-12T02:03:36.743Z,929.69
2023-02-12T02:04:36.650Z,929.64
2023-02-12T02:05:36.786Z,929.68
2023-02-12T02:06:36.664Z,929.68
2023-02-12T02:07:36.690Z,929.65
2023-02-12T02:08:36.820Z,929.65
2023-02-12T02:09:36.828Z,929.65
2023-02-12T02:10:36.724Z,929.68
2023-02-12T02:11:36.857Z,929.65
2023-02-12T02:12:36.863Z,929.67
2023-02-12T02:13:36.752Z,929.69
2023-02-12T02:14:36.753Z,929.67
2023-02-12T02:15:36.892Z,929.69
2023-02-12T02:16:36.798Z,929.67
2023-02-12T02:17:36.784Z,929.69
2023-02-12T02:18:36.790Z,929.68
2023-02-12T02:19:36.942Z,929.71
2023-02-12T02:20:36.844Z,929.67
2023-02-12T02:21:36.964Z,929.66
2023-02-12T02:22:36.846Z,929.68
2023-02-12T02:23:36.855Z,929.66
2023-02-12T02:24:36.860Z,929.66
2023-02-12T02:25:36.880Z,929.63
2023-02-12T02:26:36.878Z,929.63
2023-02-12T02:27:37.022Z,929.65
2023-02-12T02:29:37.046Z,929.66
2023-02-12T02:30:37.007Z,929.66
2023-02-12T02:31:37.102Z,929.64
2023-02-12T02:32:36.975Z,929.63
2023-02-12T02:33:37.358Z,929.62
2023-02-12T02:34:36.963Z,929.60
2023-02-12T02:35:36.984Z,929.58
2023-02-12T02:36:41.384Z,929.59
2023-02-12T02:37:37.135Z,929.59
2023-02-12T02:38:37.008Z,929.53
2023-02-12T02:39:37.037Z,929.52
2023-02-12T02:40:37.054Z,929.53
2023-02-12T02:41:37.179Z,929.51
2023-02-12T02:42:37.064Z,929.51
2023-02-12T02:43:37.197Z,929.48
2023-02-12T02:44:37.083Z,929.46
2023-02-12T02:45:37.225Z,929.51
2023-02-12T02:46:37.282Z,929.49
2023-02-12T02:47:37.241Z,929.47
2023-02-12T02:48:37.169Z,929.44
2023-02-12T02:49:37.260Z,929.44
2023-02-12T02:50:37.139Z,929.42
2023-02-12T02:51:37.291Z,929.40
2023-02-12T02:52:37.161Z,929.42
2023-02-12T02:53:37.306Z,929.36
2023-02-12T02:54:37.186Z,929.34
2023-02-12T02:55:37.335Z,929.33
2023-02-12T02:56:37.347Z,929.31
2023-02-12T02:57:37.360Z,929.32
2023-02-12T02:58:37.230Z,929.32
2023-02-12T02:59:37.375Z,929.27
2023-02-12T03:00:37.363Z,929.28
2023-02-12T03:01:37.394Z,929.17
2023-02-12T03:02:37.357Z,929.19
2023-02-12T03:03:37.289Z,929.14
2023-02-12T03:04:37.323Z,929.13
2023-02-12T03:05:37.433Z,929.15
2023-02-12T03:06:37.328Z,929.18
2023-02-12T03:07:37.458Z,929.15
2023-02-12T03:08:37.467Z,929.15
2023-02-12T03:09:37.481Z,929.12
2023-02-12T03:10:37.364Z,929.11
2023-02-12T03:11:37.500Z,929.11
2023-02-12T03:12:37.381Z,929.12
2023-02-12T03:13:37.529Z,929.09
2023-02-12T03:14:37.418Z,929.13
2023-02-12T03:15:37.417Z,929.12
2023-02-12T03:16:37.542Z,929.09
2023-02-12T03:17:37.567Z,929.08
2023-02-12T03:18:37.446Z,929.03
2023-02-12T03:19:37.574Z,929.07
2023-02-12T03:20:37.520Z,929.06
2023-02-12T03:21:37.611Z,929.03
2023-02-12T03:22:37.505Z,929.01
2023-02-12T03:23:37.643Z,929.03
2023-02-12T03:24:37.643Z,928.96
2023-02-12T03:25:37.533Z,928.94
2023-02-12T03:26:37.530Z,928.94
2023-02-12T03:27:37.686Z,928.90
2023-02-12T03:28:37.773Z,928.88
2023-02-12T03:29:37.701Z,928.86
2023-02-12T03:30:37.594Z,928.92
2023-02-12T03:31:37.665Z,928.84
2023-02-12T03:32:37.619Z,928.84
2023-02-12T03:33:37.745Z,928.84
2023-02-12T03:34:37.617Z,928.82
2023-02-12T03:35:37.642Z,928.83
2023-02-12T03:36:37.682Z,928.82
2023-02-12T03:37:37.658Z,928.80
2023-02-12T03:38:37.675Z,928.80
2023-02-12T03:39:37.809Z,928.78
2023-02-12T03:40:37.823Z,928.76
2023-02-12T03:41:37.828Z,928.74
2023-02-12T03:42:37.730Z,928.75
2023-02-12T03:43:37.852Z,928.73
2023-02-12T03:44:37.730Z,928.73
2023-02-12T03:45:37.920Z,928.71
2023-02-12T03:46:37.756Z,928.72
2023-02-12T03:47:37.900Z,928.72
2023-02-12T03:48:37.785Z,928.69
2023-02-12T03:49:37.807Z,928.68
2023-02-12T03:50:37.796Z,928.69
2023-02-12T03:51:37.946Z,928.71
2023-02-12T03:52:37.844Z,928.69
2023-02-12T03:53:37.955Z,928.67
2023-02-12T03:54:37.840Z,928.67
2023-02-12T03:55:37.850Z,928.70
2023-02-12T03:56:37.870Z,928.69
2023-02-12T03:57:38.000Z,928.68
2023-02-12T03:58:37.881Z,928.68
2023-02-12T03:59:37.904Z,928.67
2023-02-12T04:00:37.898Z,928.66
2023-02-12T04:01:38.044Z,928.68
2023-02-12T04:02:37.915Z,928.69
2023-02-12T04:03:38.061Z,928.68
2023-02-12T04:04:37.973Z,928.69
2023-02-12T04:05:38.104Z,928.69
2023-02-12T04:06:37.986Z,928.68
2023-02-12T04:07:38.101Z,928.69
2023-02-12T04:08:38.010Z,928.67
2023-02-12T04:09:38.132Z,928.66
2023-02-12T04:10:38.004Z,928.64
2023-02-12T04:11:38.033Z,928.65
2023-02-12T04:12:38.021Z,928.64
2023-02-12T04:13:38.166Z,928.61
2023-02-12T04:14:38.048Z,928.59
2023-02-12T04:15:38.057Z,928.56
2023-02-12T04:16:38.622Z,928.56
2023-02-12T04:17:38.088Z,928.55
2023-02-12T04:18:38.128Z,928.51
2023-02-12T04:19:38.231Z,928.52
2023-02-12T04:20:38.115Z,928.52
2023-02-12T04:21:38.164Z,928.50
2023-02-12T04:22:38.171Z,928.48
2023-02-12T04:23:38.275Z,928.43
2023-02-12T04:24:38.185Z,928.45
2023-02-12T04:25:38.298Z,928.43
2023-02-12T04:26:38.178Z,928.38
2023-02-12T04:27:38.205Z,928.36
2023-02-12T04:28:38.425Z,928.33
2023-02-12T04:29:38.357Z,928.32
2023-02-12T04:30:38.293Z,928.30
2023-02-12T04:31:38.453Z,928.23
2023-02-12T04:32:38.271Z,928.22
2023-02-12T04:33:38.390Z,928.21
2023-02-12T04:34:38.274Z,928.20
2023-02-12T04:35:38.409Z,928.13
2023-02-12T04:36:38.293Z,928.15
2023-02-12T04:38:38.445Z,928.15
2023-02-12T04:39:38.454Z,928.15
2023-02-12T04:40:38.381Z,928.10
2023-02-12T04:41:38.475Z,928.10
2023-02-12T04:42:38.356Z,928.09
2023-02-12T04:43:38.501Z,928.10
2023-02-12T04:44:38.389Z,928.09
2023-02-12T04:45:38.518Z,928.12
2023-02-12T04:46:38.395Z,928.07
2023-02-12T04:47:38.418Z,928.01
2023-02-12T04:48:38.427Z,928.02
2023-02-12T04:49:38.560Z,927.97
2023-02-12T04:50:38.475Z,927.98
2023-02-12T04:51:38.586Z,927.97
2023-02-12T04:52:38.480Z,927.94
2023-02-12T04:53:38.614Z,927.95
2023-02-12T04:54:38.483Z,927.92
2023-02-12T04:55:38.513Z,927.88
2023-02-12T04:56:38.556Z,927.88
2023-02-12T04:57:38.520Z,927.81
2023-02-12T04:58:38.561Z,927.82
2023-02-12T04:59:38.676Z,927.80
2023-02-12T05:00:38.682Z,927.83
2023-02-12T05:01:38.759Z,927.83
2023-02-12T05:02:38.567Z,927.81
2023-02-12T05:03:38.720Z,927.79
2023-02-12T05:04:38.633Z,927.73
2023-02-12T05:05:38.736Z,927.68
2023-02-12T05:06:38.754Z,927.69
2023-02-12T05:07:38.758Z,927.68
2023-02-12T05:08:38.652Z,927.68
2023-02-12T05:09:38.782Z,927.67
2023-02-12T05:10:38.653Z,927.67
2023-02-12T05:11:38.801Z,927.64
2023-02-12T05:12:38.718Z,927.63
2023-02-12T05:13:38.822Z,927.63
2023-02-12T05:14:38.835Z,927.62
2023-02-12T05:15:38.875Z,927.59
2023-02-12T05:16:38.864Z,927.57
2023-02-12T05:17:38.892Z,927.56
2023-02-12T05:18:38.777Z,927.53
2023-02-12T05:19:38.885Z,927.54
2023-02-12T05:20:38.767Z,927.50
2023-02-12T05:21:38.918Z,927.50
2023-02-12T05:22:38.917Z,927.50
2023-02-12T05:23:38.810Z,927.54
2023-02-12T05:24:38.810Z,927.54
2023-02-12T05:25:38.952Z,927.59
2023-02-12T05:26:38.833Z,927.56
2023-02-12T05:27:38.982Z,927.56
2023-02-12T05:28:38.950Z,927.55
2023-02-12T05:29:38.876Z,927.52
2023-02-12T05:30:38.986Z,927.50
2023-02-12T05:31:39.181Z,927.51
2023-02-12T05:32:38.894Z,927.52
2023-02-12T05:33:38.919Z,927.49
2023-02-12T05:34:38.930Z,927.51
2023-02-12T05:35:39.064Z,927.50
2023-02-12T05:36:38.940Z,927.48
2023-02-12T05:37:39.078Z,927.49
2023-02-12T05:38:38.954Z,927.46
2023-02-12T05:39:39.099Z,927.50
2023-02-12T05:40:39.001Z,927.49
2023-02-12T05:41:39.118Z,927.47
2023-02-12T05:42:38.998Z,927.46
2023-02-12T05:43:39.030Z,927.43
2023-02-12T05:44:39.047Z,927.43
2023-02-12T05:45:39.164Z,927.43
2023-02-12T05:46:39.166Z,927.38
2023-02-12T05:47:39.194Z,927.35
2023-02-12T05:48:39.064Z,927.35
2023-02-12T05:49:39.085Z,927.38
2023-02-12T05:50:39.115Z,927.38
2023-02-12T05:51:39.241Z,927.37
2023-02-12T05:52:39.114Z,927.40
2023-02-12T05:53:39.255Z,927.37
2023-02-12T05:54:39.266Z,927.37
2023-02-12T05:55:39.149Z,927.38
2023-02-12T05:56:39.282Z,927.42
2023-02-12T05:57:39.288Z,927.40
2023-02-12T05:58:39.304Z,927.45
2023-02-12T05:59:39.316Z,927.40
2023-02-12T06:00:39.229Z,927.45
2023-02-12T06:01:39.209Z,927.44
2023-02-12T06:02:39.385Z,927.42
2023-02-12T06:03:39.335Z,927.40
2023-02-12T06:04:39.386Z,927.39
2023-02-12T06:05:39.246Z,927.38
2023-02-12T06:06:39.252Z,927.40
2023-02-12T06:07:39.265Z,927.38
2023-02-12T06:08:39.409Z,927.37
2023-02-12T06:09:39.280Z,927.40
2023-02-12T06:10:39.427Z,927.37
2023-02-12T06:11:39.321Z,927.37
2023-02-12T06:12:39.333Z,927.34
2023-02-12T06:13:39.326Z,927.38
2023-02-12T06:14:39.472Z,927.32
2023-02-12T06:15:39.363Z,927.32
2023-02-12T06:16:39.585Z,927.32
2023-02-12T06:17:39.387Z,927.32
2023-02-12T06:18:39.397Z,927.31
2023-02-12T06:19:39.389Z,927.30
2023-02-12T06:20:39.540Z,927.33
2023-02-12T06:21:39.439Z,927.32
2023-02-12T06:22:39.445Z,927.31
2023-02-12T06:23:39.433Z,927.35
2023-02-12T06:24:39.576Z,927.30
2023-02-12T06:25:39.453Z,927.34
2023-02-12T06:26:39.621Z,927.34
2023-02-12T06:27:39.481Z,927.34
2023-02-12T06:28:39.749Z,927.33
2023-02-12T06:29:39.502Z,927.32
2023-02-12T06:30:39.642Z,927.31
2023-02-12T06:31:39.686Z,927.27
2023-02-12T06:32:39.664Z,927.30
2023-02-12T06:33:39.677Z,927.32
2023-02-12T06:34:39.579Z,927.31
2023-02-12T06:35:39.566Z,927.25
2023-02-12T06:36:39.713Z,927.31
2023-02-12T06:37:39.618Z,927.30
2023-02-12T06:38:39.606Z,927.30
2023-02-12T06:39:39.611Z,927.27
2023-02-12T06:40:39.754Z,927.30
2023-02-12T06:41:39.761Z,927.29
2023-02-12T06:42:39.778Z,927.34
2023-02-12T06:43:39.660Z,927.33
2023-02-12T06:44:39.816Z,927.33
2023-02-12T06:45:39.680Z,927.32
2023-02-12T06:46:39.935Z,927.28
2023-02-12T06:47:39.840Z,927.31
2023-02-12T06:48:39.758Z,927.30
2023-02-12T06:49:39.731Z,927.28
2023-02-12T06:50:39.784Z,927.30
2023-02-12T06:51:39.747Z,927.30
2023-02-12T06:52:39.886Z,927.31
2023-02-12T06:53:39.767Z,927.33
2023-02-12T06:54:39.795Z,927.33
2023-02-12T06:55:39.791Z,927.31
2023-02-12T06:56:39.928Z,927.33
2023-02-12T06:57:39.848Z,927.34
2023-02-12T06:58:39.824Z,927.35
2023-02-12T06:59:39.849Z,927.33
2023-02-12T07:00:39.983Z,927.35
2023-02-12T07:01:39.868Z,927.35
2023-02-12T07:02:39.868Z,927.39
2023-02-12T07:03:39.901Z,927.41
2023-02-12T07:04:40.013Z,927.39
2023-02-12T07:05:40.027Z,927.39
2023-02-12T07:06:40.043Z,927.34
2023-02-12T07:07:39.939Z,927.36
2023-02-12T07:08:40.057Z,927.41
2023-02-12T07:09:40.066Z,927.39
2023-02-12T07:10:40.086Z,927.35
2023-02-12T07:11:39.965Z,927.38
2023-02-12T07:12:39.969Z,927.39
2023-02-12T07:13:39.989Z,927.40
2023-02-12T07:14:40.002Z,927.41
2023-02-12T07:15:40.024Z,927.37
2023-02-12T07:16:40.191Z,927.39
2023-02-12T07:17:40.036Z,927.41
2023-02-12T07:18:40.046Z,927.42
2023-02-12T07:19:40.048Z,927.44
2023-02-12T07:20:40.186Z,927.44
2023-02-12T07:21:40.061Z,927.42
2023-02-12T07:22:40.210Z,927.43
2023-02-12T07:23:40.221Z,927.44
2023-02-12T07:24:40.113Z,927.43
2023-02-12T07:25:40.109Z,927.45
2023-02-12T07:26:40.253Z,927.44
2023-02-12T07:27:40.161Z,927.44
2023-02-12T07:28:40.396Z,927.46
2023-02-12T07:29:40.283Z,927.47
2023-02-12T07:30:42.580Z,927.48
2023-02-12T07:31:40.240Z,927.48
2023-02-12T07:32:40.318Z,927.51
2023-02-12T07:33:40.216Z,927.53
2023-02-12T07:34:40.340Z,927.48
2023-02-12T07:35:40.217Z,927.52
2023-02-12T07:36:40.363Z,927.50
2023-02-12T07:37:40.374Z,927.47
2023-02-12T07:38:40.386Z,927.46
2023-02-12T07:39:40.264Z,927.47
2023-02-12T07:40:40.410Z,927.45
2023-02-12T07:41:40.417Z,927.48
2023-02-12T07:42:40.431Z,927.44
2023-02-12T07:43:40.333Z,927.45
2023-02-12T07:44:40.449Z,927.44
2023-02-12T07:45:40.439Z,927.44
2023-02-12T07:46:40.469Z,927.45
2023-02-12T07:47:40.484Z,927.42
2023-02-12T07:48:40.493Z,927.43
2023-02-12T07:49:43.484Z,927.45
2023-02-12T07:50:40.515Z,927.44
2023-02-12T07:51:40.391Z,927.43
2023-02-12T07:52:40.541Z,927.44
2023-02-12T07:53:40.547Z,927.42
2023-02-12T07:54:40.563Z,927.45
2023-02-12T07:55:40.447Z,927.45
2023-02-12T07:56:40.584Z,927.40
2023-02-12T07:57:40.592Z,927.42
2023-02-12T07:58:40.603Z,927.43
2023-02-12T07:59:40.495Z,927.43
2023-02-12T08:00:40.626Z,927.43
2023-02-12T08:01:40.514Z,927.47
2023-02-12T08:02:40.702Z,927.45
2023-02-12T08:03:40.549Z,927.43
2023-02-12T08:04:40.655Z,927.43
2023-02-12T08:05:40.549Z,927.43
2023-02-12T08:06:40.691Z,927.46
2023-02-12T08:07:40.580Z,927.48
2023-02-12T08:08:40.617Z,927.49
2023-02-12T08:09:40.593Z,927.47
2023-02-12T08:10:40.602Z,927.53
2023-02-12T08:11:40.614Z,927.52
2023-02-12T08:12:40.758Z,927.54
2023-02-12T08:13:40.650Z,927.53
2023-02-12T08:14:40.780Z,927.54
2023-02-12T08:15:40.789Z,927.58
2023-02-12T08:16:40.883Z,927.58
2023-02-12T08:17:40.683Z,927.60
2023-02-12T08:18:40.826Z,927.63
2023-02-12T08:19:40.725Z,927.63
2023-02-12T08:20:40.845Z,927.61
2023-02-12T08:21:40.724Z,927.65
2023-02-12T08:22:40.869Z,927.67
2023-02-12T08:23:40.880Z,927.69
2023-02-12T08:24:40.798Z,927.71
2023-02-12T08:25:40.777Z,927.70
2023-02-12T08:26:40.929Z,927.71
2023-02-12T08:27:40.920Z,927.73
2023-02-12T08:28:40.933Z,927.72
2023-02-12T08:29:40.942Z,927.75
2023-02-12T08:30:40.888Z,927.76
2023-02-12T08:31:41.002Z,927.80
2023-02-12T08:32:40.974Z,927.78
2023-02-12T08:33:40.853Z,927.80
2023-02-12T08:34:40.998Z,927.80
2023-02-12T08:35:40.885Z,927.81
2023-02-12T08:36:41.017Z,927.84
2023-02-12T08:37:40.922Z,927.85
2023-02-12T08:38:41.045Z,927.85
2023-02-12T08:39:41.054Z,927.90
2023-02-12T08:40:40.983Z,927.85
2023-02-12T08:41:40.945Z,927.84
2023-02-12T08:42:40.948Z,927.85
2023-02-12T08:43:40.964Z,927.86
2023-02-12T08:44:41.104Z,927.93
2023-02-12T08:45:41.162Z,927.88
2023-02-12T08:46:40.989Z,927.90
2023-02-12T08:47:41.001Z,927.91
2023-02-12T08:48:41.143Z,927.93
2023-02-12T08:49:41.018Z,927.90
2023-02-12T08:50:41.165Z,927.89
2023-02-12T08:51:41.177Z,927.94
2023-02-12T08:52:43.110Z,927.94
2023-02-12T08:53:41.062Z,927.98
2023-02-12T08:54:41.228Z,927.99
2023-02-12T08:55:41.102Z,927.99
2023-02-12T08:56:41.224Z,928.03
2023-02-12T08:57:41.235Z,928.00
2023-02-12T08:58:41.129Z,928.01
2023-02-12T08:59:41.139Z,928.06
2023-02-12T09:00:41.266Z,928.02
2023-02-12T09:01:41.274Z,928.06
2023-02-12T09:02:41.322Z,928.07
2023-02-12T09:03:41.170Z,928.07
2023-02-12T09:04:41.308Z,928.06
2023-02-12T09:05:41.183Z,928.10
2023-02-12T09:06:41.215Z,928.11
2023-02-12T09:07:41.211Z,928.12
2023-02-12T09:08:41.353Z,928.11
2023-02-12T09:09:41.238Z,928.17
2023-02-12T09:10:41.372Z,928.16
2023-02-12T09:11:41.255Z,928.22
2023-02-12T09:12:41.393Z,928.23
2023-02-12T09:13:41.272Z,928.22
2023-02-12T09:14:41.422Z,928.22
2023-02-12T09:15:43.857Z,928.24
2023-02-12T09:16:41.395Z,928.29
2023-02-12T09:17:41.337Z,928.31
2023-02-12T09:18:41.464Z,928.31
2023-02-12T09:19:41.359Z,928.34
2023-02-12T09:20:41.354Z,928.37
2023-02-12T09:21:41.389Z,928.37
2023-02-12T09:22:41.501Z,928.39
2023-02-12T09:23:41.512Z,928.38
2023-02-12T09:24:41.524Z,928.38
2023-02-12T09:25:41.535Z,928.40
2023-02-12T09:26:41.423Z,928.41
2023-02-12T09:27:41.554Z,928.42
2023-02-12T09:28:41.597Z,928.42
2023-02-12T09:29:41.445Z,928.45
2023-02-12T09:30:41.621Z,928.49
2023-02-12T09:31:41.679Z,928.51
2023-02-12T09:32:41.488Z,928.47
2023-02-12T09:33:41.494Z,928.46
2023-02-12T09:34:41.637Z,928.46
2023-02-12T09:35:41.530Z,928.47
2023-02-12T09:36:41.557Z,928.49
2023-02-12T09:37:41.558Z,928.48
2023-02-12T09:38:41.690Z,928.50
2023-02-12T09:39:41.702Z,928.54
2023-02-12T09:40:41.717Z,928.53
2023-02-12T09:41:41.602Z,928.56
2023-02-12T09:42:41.611Z,928.54
2023-02-12T09:43:41.623Z,928.58
2023-02-12T09:44:41.770Z,928.59
2023-02-12T09:45:41.784Z,928.55
2023-02-12T09:46:41.899Z,928.56
2023-02-12T09:47:41.699Z,928.55
2023-02-12T09:48:41.833Z,928.54
2023-02-12T09:49:41.711Z,928.55
2023-02-12T09:50:41.858Z,928.55
2023-02-12T09:51:41.742Z,928.51
2023-02-12T09:52:41.905Z,928.51
2023-02-12T09:53:41.778Z,928.52
2023-02-12T09:54:41.922Z,928.53
2023-02-12T09:55:41.807Z,928.54
2023-02-12T09:56:41.956Z,928.56
2023-02-12T09:57:41.848Z,928.59
2023-02-12T09:58:41.990Z,928.59
2023-02-12T09:59:41.870Z,928.60
2023-02-12T10:00:42.025Z,928.59
2023-02-12T10:01:42.065Z,928.60
2023-02-12T10:02:42.056Z,928.58
2023-02-12T10:03:42.071Z,928.58
2023-02-12T10:04:55.073Z,928.59
2023-02-12T10:05:42.138Z,928.58
2023-02-12T10:06:42.122Z,928.57
2023-02-12T10:07:42.019Z,928.56
2023-02-12T10:08:42.027Z,928.57
2023-02-12T10:09:42.164Z,928.62
2023-02-12T10:10:42.048Z,928.62
2023-02-12T10:11:42.198Z,928.65
2023-02-12T10:12:42.094Z,928.66
2023-02-12T10:13:42.230Z,928.70
2023-02-12T10:14:42.249Z,928.71
2023-02-12T10:15:42.318Z,928.73
2023-02-12T10:16:42.178Z,928.75
2023-02-12T10:17:42.295Z,928.78
2023-02-12T10:18:42.193Z,928.81
2023-02-12T10:19:42.326Z,928.84
2023-02-12T10:20:42.351Z,928.85
2023-02-12T10:21:42.234Z,928.86
2023-02-12T10:22:55.008Z,928.88
2023-02-12T10:23:42.392Z,928.86
2023-02-12T10:24:42.280Z,928.88
2023-02-12T10:25:42.421Z,928.89
2023-02-12T10:26:42.433Z,928.86
2023-02-12T10:27:42.335Z,928.88
2023-02-12T10:28:42.436Z,928.90
2023-02-12T10:29:42.563Z,928.96
2023-02-12T10:30:42.505Z,928.89
2023-02-12T10:31:42.668Z,928.90
2023-02-12T10:32:42.462Z,928.91
2023-02-12T10:33:42.421Z,928.91
2023-02-12T10:34:42.422Z,928.95
2023-02-12T10:35:42.570Z,928.96
2023-02-12T10:36:42.462Z,928.93
2023-02-12T10:37:42.595Z,928.95
2023-02-12T10:38:42.489Z,928.94
2023-02-12T10:39:42.627Z,928.93
2023-02-12T10:40:42.641Z,928.97
2023-02-12T10:41:42.655Z,928.95
2023-02-12T10:42:42.535Z,928.99
2023-02-12T10:43:42.568Z,928.98
2023-02-12T10:44:42.576Z,929.00
2023-02-12T10:45:42.715Z,928.99
2023-02-12T10:46:42.675Z,928.98
2023-02-12T10:47:42.746Z,928.99
2023-02-12T10:48:42.674Z,929.01
2023-02-12T10:49:42.661Z,928.99
2023-02-12T10:50:42.681Z,929.01
2023-02-12T10:51:42.807Z,929.01
2023-02-12T10:52:42.694Z,929.06
2023-02-12T10:53:42.728Z,929.05
2023-02-12T10:54:42.728Z,929.14
2023-02-12T10:55:42.865Z,929.18
2023-02-12T10:56:42.749Z,929.19
2023-02-12T10:57:42.895Z,929.22
2023-02-12T10:58:42.779Z,929.16
2023-02-12T10:59:42.928Z,929.17
2023-02-12T11:00:42.821Z,929.17
2023-02-12T11:01:42.997Z,929.12
2023-02-12T11:02:42.976Z,929.10
2023-02-12T11:03:42.883Z,929.13
2023-02-12T11:04:43.043Z,929.15
2023-02-12T11:05:43.033Z,929.15
2023-02-12T11:06:42.926Z,929.15
2023-02-12T11:07:43.060Z,929.14
2023-02-12T11:08:42.957Z,929.19
2023-02-12T11:09:42.967Z,929.23
2023-02-12T11:10:42.978Z,929.25
2023-02-12T11:11:43.135Z,929.32
2023-02-12T11:12:43.013Z,929.33
2023-02-12T11:13:43.165Z,929.30
2023-02-12T11:14:43.074Z,929.32
2023-02-12T11:15:43.235Z,929.30
2023-02-12T11:16:43.118Z,929.28
2023-02-12T11:17:43.106Z,929.32
2023-02-12T11:18:43.257Z,929.30
2023-02-12T11:19:43.276Z,929.37
2023-02-12T11:20:43.191Z,929.38
2023-02-12T11:21:43.310Z,929.25
2023-02-12T11:22:43.196Z,929.24
2023-02-12T11:23:43.239Z,929.23
2023-02-12T11:24:43.256Z,929.27
2023-02-12T11:25:43.391Z,929.27
2023-02-12T11:26:43.278Z,929.41
2023-02-12T11:27:43.303Z,929.41
2023-02-12T11:28:43.502Z,929.42
2023-02-12T11:29:43.357Z,929.44
2023-02-12T11:30:43.359Z,929.49
2023-02-12T11:31:43.618Z,929.40
2023-02-12T11:32:43.400Z,929.29
2023-02-12T11:33:43.554Z,929.30
2023-02-12T11:34:43.447Z,929.34
2023-02-12T11:35:43.596Z,929.35
2023-02-12T11:36:43.510Z,929.30
2023-02-12T11:37:43.641Z,929.30
2023-02-12T11:38:43.529Z,929.33
2023-02-12T11:39:43.681Z,929.39
2023-02-12T11:40:43.570Z,929.35
2023-02-12T11:41:43.724Z,929.40
2023-02-12T11:42:43.613Z,929.36
2023-02-12T11:43:43.767Z,929.33
2023-02-12T11:44:43.674Z,929.32
2023-02-12T11:45:43.676Z,929.38
2023-02-12T11:46:43.738Z,929.34
2023-02-12T11:47:43.845Z,929.37
2023-02-12T11:48:43.867Z,929.41
2023-02-12T11:49:44.493Z,929.50
2023-02-12T11:50:43.791Z,929.47
2023-02-12T11:51:43.927Z,929.45
2023-02-12T11:52:43.917Z,929.45
2023-02-12T11:53:43.966Z,929.43
2023-02-12T11:54:43.856Z,929.40
2023-02-12T11:55:43.887Z,929.45
2023-02-12T11:56:44.023Z,929.50
2023-02-12T11:57:44.042Z,929.54
2023-02-12T11:58:43.939Z,929.48
2023-02-12T11:59:44.083Z,929.48
2023-02-12T12:00:43.976Z,929.50
2023-02-12T12:01:44.033Z,929.58
2023-02-12T12:02:44.120Z,929.54
2023-02-12T12:03:44.164Z,929.68
2023-02-12T12:04:44.049Z,929.54
2023-02-12T12:05:44.064Z,929.50
2023-02-12T12:06:44.100Z,929.58
2023-02-12T12:07:44.237Z,929.57
2023-02-12T12:08:44.175Z,929.59
2023-02-12T12:09:44.276Z,929.58
2023-02-12T12:10:44.320Z,929.54
2023-02-12T12:11:44.317Z,929.52
2023-02-12T12:12:44.228Z,929.51
2023-02-12T12:13:44.355Z,929.56
2023-02-12T12:14:44.242Z,929.57
2023-02-12T12:15:44.269Z,929.61
2023-02-12T12:16:44.474Z,929.57
2023-02-12T12:17:44.441Z,929.54
2023-02-12T12:18:44.324Z,929.56
2023-02-12T12:19:44.475Z,929.59
2023-02-12T12:20:44.503Z,929.58
2023-02-12T12:21:44.515Z,929.65
2023-02-12T12:22:44.400Z,929.73
2023-02-12T12:23:44.558Z,929.88
2023-02-12T12:24:44.495Z,929.72
2023-02-12T12:25:44.617Z,929.71
2023-02-12T12:26:44.481Z,929.72
2023-02-12T12:27:44.634Z,929.70
2023-02-12T12:28:44.654Z,929.66
2023-02-12T12:29:44.672Z,929.67
2023-02-12T12:30:44.582Z,929.64